Time;durP1;ratioP1;P1;durP2;ratioP2;P2;SDS_P1;SDS_P2;PMS_P1;PMS_P2;Temp;Humidity;BMP_temperature;BMP_pressure;BME280_temperature;BME280_humidity;BME280_pressure;Samples;Min_cycle;Max_cycle;Signal;HPM_P1;HPM_P2
2024/01/02 00:01:19;;;;;;;13.80;4.05;;;;;;;;;;4921620;29;20055;-70
2024/01/02 00:03:45;;;;;;;13.95;4.30;;;;;;;;;;4949288;29;20049;-70
2024/01/02 00:06:15;;;;;;;16.30;3.70;;;;;;;;;;4913941;29;20055;-70
2024/01/02 00:08:41;;;;;;;15.32;4.75;;;;;;;;;;4917619;29;20402;-69
2024/01/02 00:11:07;;;;;;;15.50;3.78;;;;;;;;;;4924771;29;20086;-70
2024/01/02 00:13:33;;;;;;;12.10;4.13;;;;;;;;;;4912612;29;20082;-70
2024/01/02 00:15:59;;;;;;;7.38;3.13;;;;;;;;;;4907455;29;20130;-70
2024/01/02 00:18:25;;;;;;;8.85;3.40;;;;;;;;;;4916142;29;20135;-70
2024/01/02 00:20:51;;;;;;;14.30;4.13;;;;;;;;;;4947017;29;20047;-70
2024/01/02 00:23:18;;;;;;;8.10;2.65;;;;;;;;;;4927116;29;20562;-70
2024/01/02 00:25:44;;;;;;;15.00;6.03;;;;;;;;;;4928700;29;20056;-70
2024/01/02 00:28:10;;;;;;;8.77;3.50;;;;;;;;;;4923991;29;20102;-70
2024/01/02 00:30:36;;;;;;;9.25;3.13;;;;;;;;;;4915515;29;20040;-71
2024/01/02 00:33:05;;;;;;;13.50;3.90;;;;;;;;;;4913761;29;20145;-70
2024/01/02 00:35:31;;;;;;;11.48;3.25;;;;;;;;;;4924655;29;20551;-69
2024/01/02 00:37:57;;;;;;;9.50;2.92;;;;;;;;;;4916435;29;20562;-70
2024/01/02 00:40:23;;;;;;;13.80;3.90;;;;;;;;;;4931514;29;20039;-70
2024/01/02 00:42:49;;;;;;;10.70;3.33;;;;;;;;;;4915938;29;20043;-69
2024/01/02 00:45:15;;;;;;;9.77;3.38;;;;;;;;;;4939430;28;20047;-70
2024/01/02 00:47:41;;;;;;;10.98;3.10;;;;;;;;;;4925469;29;20048;-70
2024/01/02 00:50:07;;;;;;;7.22;1.85;;;;;;;;;;4924632;29;20043;-70
2024/01/02 00:52:33;;;;;;;9.38;2.53;;;;;;;;;;4928082;29;20070;-70
2024/01/02 00:54:59;;;;;;;6.32;2.85;;;;;;;;;;4922490;29;20161;-70
2024/01/02 00:57:26;;;;;;;10.25;3.58;;;;;;;;;;4931171;29;20566;-70
2024/01/02 00:59:52;;;;;;;13.93;2.97;;;;;;;;;;4948182;29;20067;-70
2024/01/02 01:02:18;;;;;;;10.32;2.63;;;;;;;;;;4923119;29;20113;-70
2024/01/02 01:04:44;;;;;;;9.25;2.40;;;;;;;;;;4924592;29;20102;-70
2024/01/02 01:07:10;;;;;;;9.40;2.85;;;;;;;;;;4927114;29;20048;-71
2024/01/02 01:09:37;;;;;;;6.40;2.80;;;;;;;;;;4915836;29;20073;-70
2024/01/02 01:12:03;;;;;;;10.93;2.55;;;;;;;;;;4927996;29;20055;-70
2024/01/02 01:14:29;;;;;;;12.88;3.67;;;;;;;;;;4908824;29;20039;-70
2024/01/02 01:16:55;;;;;;;14.23;3.40;;;;;;;;;;4926760;29;20046;-70
2024/01/02 01:19:21;;;;;;;7.50;2.92;;;;;;;;;;4935395;29;20050;-70
2024/01/02 01:21:47;;;;;;;6.93;1.90;;;;;;;;;;4948479;28;20039;-70
2024/01/02 01:24:13;;;;;;;8.80;2.40;;;;;;;;;;4919162;29;20047;-70
2024/01/02 01:26:39;;;;;;;10.30;2.65;;;;;;;;;;4925366;29;20051;-70
2024/01/02 01:29:05;;;;;;;8.13;3.00;;;;;;;;;;4918389;29;20119;-70
2024/01/02 01:31:31;;;;;;;13.25;3.40;;;;;;;;;;4911681;29;20106;-70
2024/01/02 01:33:58;;;;;;;10.20;2.83;;;;;;;;;;4946570;29;20043;-70
2024/01/02 01:36:24;;;;;;;14.00;3.45;;;;;;;;;;4929191;28;20047;-70
2024/01/02 01:38:50;;;;;;;7.72;2.35;;;;;;;;;;4916082;28;20054;-70
2024/01/02 01:41:17;;;;;;;7.15;2.20;;;;;;;;;;4931584;29;20051;-70
2024/01/02 01:43:43;;;;;;;10.02;3.33;;;;;;;;;;4925903;29;20042;-70
2024/01/02 01:46:09;;;;;;;8.10;2.88;;;;;;;;;;4915651;29;20051;-70
2024/01/02 01:48:37;;;;;;;8.93;3.05;;;;;;;;;;4927820;29;20813;-70
2024/01/02 01:51:02;;;;;;;10.25;2.75;;;7.10;99.90;;;;;;4939193;29;20465;-70
2024/01/02 01:53:29;;;;;;;11.68;3.33;;;;;;;;;;4916163;29;20103;-70
2024/01/02 01:55:55;;;;;;;11.07;3.42;;;;;;;;;;4930544;29;20043;-71
2024/01/02 01:58:21;;;;;;;11.13;3.08;;;;;;;;;;4927725;29;20187;-70
2024/01/02 02:00:47;;;;;;;8.85;2.95;;;;;;;;;;4929436;29;20614;-70
2024/01/02 02:03:14;;;;;;;13.52;2.80;;;;;;;;;;4928001;29;20447;-70
2024/01/02 02:05:40;;;;;;;12.10;3.30;;;;;;;;;;4924712;29;20562;-71
2024/01/02 02:08:06;;;;;;;10.95;3.33;;;;;;;;;;4918672;29;20054;-71
2024/01/02 02:10:32;;;;;;;19.10;3.78;;;;;;;;;;4936457;29;20076;-71
2024/01/02 02:12:58;;;;;;;12.82;4.05;;;;;;;;;;4925843;29;20443;-70
2024/01/02 02:15:24;;;;;;;13.10;3.35;;;;;;;;;;4923138;29;20057;-70
2024/01/02 02:17:50;;;;;;;8.52;3.15;;;;;;;;;;4931349;29;20331;-70
2024/01/02 02:20:16;;;;;;;12.43;3.55;;;;;;;;;;4928730;29;20139;-70
2024/01/02 02:22:52;;;;;;;13.45;3.85;;;;;;;;;;4930716;29;20043;-70
2024/01/02 02:25:19;;;;;;;8.63;2.40;;;;;;;;;;4913132;29;20050;-70
2024/01/02 02:27:46;;;;;;;9.52;3.58;;;;;;;;;;4939548;29;20039;-71
2024/01/02 02:30:12;;;;;;;11.07;3.40;;;;;;;;;;4930660;29;20062;-70
2024/01/02 02:32:38;;;;;;;8.88;2.95;;;;;;;;;;4915915;29;20084;-70
2024/01/02 02:35:05;;;;;;;11.80;3.80;;;;;;;;;;4928808;29;20142;-70
2024/01/02 02:37:31;;;;;;;10.85;3.03;;;;;;;;;;4922548;29;20530;-70
2024/01/02 02:39:57;;;;;;;11.82;4.03;;;;;;;;;;4911876;29;20106;-70
2024/01/02 02:42:23;;;;;;;6.93;3.42;;;;;;;;;;4929666;29;20047;-71
2024/01/02 02:44:49;;;;;;;8.13;3.35;;;;;;;;;;4929052;29;20047;-71
2024/01/02 02:47:15;;;;;;;6.05;3.15;;;;;;;;;;4930754;29;20065;-71
2024/01/02 02:49:42;;;;;;;12.50;3.80;;;;;;;;;;4942431;29;20487;-70
2024/01/02 02:52:08;;;;;;;8.60;3.47;;;;;;;;;;4932806;29;20056;-71
2024/01/02 02:54:34;;;;;;;17.05;5.15;;;;;;;;;;4943998;29;20047;-70
2024/01/02 02:57:01;;;;;;;13.43;4.53;;;;;;;;;;4941698;29;20066;-71
2024/01/02 02:59:27;;;;;;;8.73;3.63;;;;;;;;;;4944338;29;20079;-70
2024/01/02 03:01:53;;;;;;;10.25;4.88;;;;;;;;;;4930031;29;20398;-71
2024/01/02 03:04:19;;;;;;;10.18;5.15;;;;;;;;;;4943549;29;20051;-70
2024/01/02 03:06:45;;;;;;;9.00;4.07;;;;;;;;;;4925781;29;20054;-70
2024/01/02 03:09:11;;;;;;;6.60;4.03;;;;;;;;;;4928902;29;20455;-70
2024/01/02 03:11:37;;;;;;;11.98;4.05;;;;;;;;;;4929718;29;20051;-70
2024/01/02 03:14:03;;;;;;;10.82;5.38;;;;;;;;;;4922304;29;20333;-71
2024/01/02 03:16:29;;;;;;;8.48;3.58;;;;;;;;;;4943833;29;20770;-71
2024/01/02 03:18:55;;;;;;;11.48;4.15;;;;;;;;;;4924239;29;20047;-70
2024/01/02 03:21:27;;;;;;;11.60;4.60;;;;;;;;;;4928919;29;20054;-70
2024/01/02 03:23:54;;;;;;;6.97;3.42;;;;;;;;;;4927100;29;20454;-70
2024/01/02 03:26:20;;;;;;;9.30;4.57;;;;;;;;;;4927588;29;20529;-70
2024/01/02 03:28:46;;;;;;;12.48;4.55;;;;;;;;;;4950373;29;20090;-69
2024/01/02 03:31:12;;;;;;;7.10;3.28;;;;;;;;;;4925300;29;20491;-69
2024/01/02 03:33:38;;;;;;;9.32;4.75;;;;;;;;;;4945025;29;20059;-69
2024/01/02 03:36:05;;;;;;;7.20;3.90;;;;;;;;;;4927481;29;20767;-69
2024/01/02 03:38:31;;;;;;;14.35;4.10;;;;;;;;;;4934120;29;20043;-69
2024/01/02 03:40:57;;;;;;;5.47;3.30;;;;;;;;;;4933263;29;20146;-70
2024/01/02 03:43:23;;;;;;;4.55;3.28;;;;;;;;;;4913363;29;20085;-70
2024/01/02 03:45:49;;;;;;;8.18;5.18;;;;;;;;;;4913514;29;20083;-69
2024/01/02 03:48:15;;;;;;;6.60;3.35;;;;;;;;;;4917285;29;20049;-70
2024/01/02 03:50:41;;;;;;;6.38;4.25;;;;;;;;;;4932374;29;20039;-69
2024/01/02 03:53:07;;;;;;;6.32;3.28;;;;;;;;;;4932812;29;20051;-69
2024/01/02 03:55:34;;;;;;;7.82;3.45;;;;;;;;;;4949438;29;20047;-70
2024/01/02 03:58:00;;;;;;;3.92;2.83;;;;;;;;;;4946947;29;20043;-70
2024/01/02 04:00:26;;;;;;;13.50;3.78;;;;;;;;;;4925584;29;20123;-70
2024/01/02 04:02:52;;;;;;;5.20;3.40;;;;;;;;;;4910548;29;20042;-70
2024/01/02 04:05:18;;;;;;;5.22;4.68;;;;;;;;;;4931891;29;20035;-70
2024/01/02 04:07:44;;;;;;;6.15;3.70;;;;;;;;;;4928341;29;20054;-69
2024/01/02 04:10:10;;;;;;;6.60;3.60;;;;;;;;;;4925296;29;20047;-70
2024/01/02 04:12:36;;;;;;;9.00;3.45;;;;;;;;;;4924415;29;20050;-69
2024/01/02 04:15:02;;;;;;;10.88;4.05;;;;;;;;;;4945283;29;20079;-70
2024/01/02 04:17:28;;;;;;;9.43;4.32;;;;;;;;;;4946518;29;20058;-69
2024/01/02 04:19:54;;;;;;;4.72;3.00;;;;;;;;;;4906235;29;20186;-70
2024/01/02 04:22:21;;;;;;;5.10;3.63;;;;;;;;;;4931400;29;20687;-69
2024/01/02 04:24:47;;;;;;;4.85;2.58;;;;;;;;;;4927707;29;20143;-69
2024/01/02 04:27:13;;;;;;;4.45;2.53;;;;;;;;;;4927172;29;20134;-70
2024/01/02 04:29:39;;;;;;;4.47;3.10;;;;;;;;;;4944004;29;20049;-70
2024/01/02 04:32:05;;;;;;;5.10;2.65;;;;;;;;;;4922790;29;20507;-70
2024/01/02 04:34:31;;;;;;;6.38;2.58;;;;;;;;;;4945392;29;20058;-70
2024/01/02 04:36:57;;;;;;;4.75;2.78;;;;;;;;;;4928622;29;20047;-70
2024/01/02 04:39:23;;;;;;;2.95;2.63;;;;;;;;;;4931723;29;20098;-70
2024/01/02 04:41:49;;;;;;;5.78;2.72;;;;;;;;;;4930228;29;20088;-70
2024/01/02 04:44:15;;;;;;;7.35;2.70;;;;;;;;;;4931022;29;20153;-70
2024/01/02 04:46:41;;;;;;;8.13;3.33;;;;;;;;;;4924884;29;20047;-69
2024/01/02 04:49:08;;;;;;;4.70;2.22;;;;;;;;;;4940480;29;20114;-70
2024/01/02 04:51:34;;;;;;;4.85;2.80;;;;;;;;;;4928163;29;20137;-69
2024/01/02 04:54:00;;;;;;;2.45;2.03;;;;;;;;;;4923511;29;20048;-69
2024/01/02 04:56:26;;;;;;;5.82;2.10;;;;;;;;;;4924570;29;20586;-70
2024/01/02 04:58:52;;;;;;;3.47;2.50;;;;;;;;;;4945308;29;20070;-70
2024/01/02 05:01:18;;;;;;;3.28;2.30;;;;;;;;;;4917085;29;20786;-70
2024/01/02 05:03:44;;;;;;;4.45;2.50;;;;;;;;;;4945971;29;20078;-70
2024/01/02 05:06:10;;;;;;;4.32;1.98;;;;;;;;;;4929689;29;20556;-70
2024/01/02 05:08:36;;;;;;;3.00;2.20;;;;;;;;;;4948916;29;20126;-70
2024/01/02 05:11:02;;;;;;;2.60;1.75;;;;;;;;;;4929263;29;20726;-69
2024/01/02 05:13:28;;;;;;;2.22;1.55;;;;;;;;;;4949036;29;20514;-69
2024/01/02 05:15:54;;;;;;;2.88;1.95;;;;;;;;;;4915974;29;20183;-69
2024/01/02 05:18:20;;;;;;;2.53;1.70;;;;;;;;;;4927075;29;20047;-69
2024/01/02 05:20:47;;;;;;;4.28;1.90;;;;;;;;;;4908477;29;20264;-69
2024/01/02 05:23:13;;;;;;;6.93;1.75;;;;;;;;;;4936338;29;20040;-69
2024/01/02 05:25:39;;;;;;;6.30;1.70;;;;;;;;;;4910314;29;20043;-69
2024/01/02 05:28:05;;;;;;;3.30;1.73;;;;;;;;;;4926380;29;20278;-69
2024/01/02 05:30:31;;;;;;;4.65;1.92;;;;;;;;;;4928679;29;20055;-69
2024/01/02 05:32:57;;;;;;;1.45;1.35;;;;;;;;;;4927886;29;20404;-69
2024/01/02 05:35:23;;;;;;;1.73;1.45;;;;;;;;;;4922529;29;20056;-69
2024/01/02 05:37:49;;;;;;;2.97;2.00;;;;;;;;;;4919997;29;20055;-69
2024/01/02 05:40:15;;;;;;;1.85;1.75;;;;;;;;;;4925967;29;20047;-69
2024/01/02 05:42:41;;;;;;;2.35;1.67;;;;;;;;;;4925606;29;20043;-69
2024/01/02 05:45:07;;;;;;;3.35;1.73;;;7.60;99.90;;;;;;4938894;29;20102;-69
2024/01/02 05:47:33;;;;;;;1.60;1.50;;;;;;;;;;4929918;29;20821;-69
2024/01/02 05:49:59;;;;;;;1.80;1.38;;;;;;;;;;4926052;29;20061;-69
2024/01/02 05:52:25;;;;;;;2.33;1.50;;;;;;;;;;4946549;29;20122;-70
2024/01/02 05:54:51;;;;;;;1.33;1.23;;;;;;;;;;4930977;29;20070;-69
2024/01/02 05:57:17;;;;;;;1.38;1.27;;;;;;;;;;4930659;29;20519;-69
2024/01/02 05:59:43;;;;;;;1.77;1.50;;;;;;;;;;4931521;29;20079;-70
2024/01/02 06:02:09;;;;;;;3.67;1.27;;;;;;;;;;4926425;29;20129;-69
2024/01/02 06:04:35;;;;;;;1.60;1.50;;;;;;;;;;4908785;29;20315;-69
2024/01/02 06:07:01;;;;;;;1.60;1.50;;;;;;;;;;4929571;29;20051;-69
2024/01/02 06:09:27;;;;;;;1.05;0.98;;;;;;;;;;4926183;29;20047;-69
2024/01/02 06:11:54;;;;;;;1.60;1.50;;;;;;;;;;4922714;29;20055;-70
2024/01/02 06:14:20;;;;;;;1.55;1.45;;;;;;;;;;4924073;29;20388;-70
2024/01/02 06:16:46;;;;;;;3.03;1.83;;;;;;;;;;4919113;29;20046;-70
2024/01/02 06:19:12;;;;;;;1.23;1.13;;;;;;;;;;4924767;29;20054;-70
2024/01/02 06:21:38;;;;;;;1.60;1.30;;;;;;;;;;4926594;29;20050;-70
2024/01/02 06:24:04;;;;;;;2.05;1.60;;;;;;;;;;4937699;29;20126;-69
2024/01/02 06:26:30;;;;;;;1.75;1.65;;;;;;;;;;4922139;29;20050;-70
2024/01/02 06:28:56;;;;;;;1.98;1.88;;;;;;;;;;4916331;29;20075;-69
2024/01/02 06:31:22;;;;;;;1.65;1.55;;;;;;;;;;4920373;29;21017;-70
2024/01/02 06:33:48;;;;;;;1.38;1.27;;;;;;;;;;4902446;29;20052;-70
2024/01/02 06:36:14;;;;;;;1.50;1.40;;;;;;;;;;4925221;29;20059;-70
2024/01/02 06:38:40;;;;;;;1.88;1.38;;;;;;;;;;4924783;29;20507;-70
2024/01/02 06:41:06;;;;;;;2.35;1.70;;;;;;;;;;4908714;29;20102;-70
2024/01/02 06:43:32;;;;;;;1.50;1.40;;;;;;;;;;4904343;29;20072;-70
2024/01/02 06:46:00;;;;;;;1.63;1.35;;;;;;;;;;4908194;29;20048;-70
2024/01/02 06:48:26;;;;;;;1.70;1.60;;;;;;;;;;4908202;29;20119;-70
2024/01/02 06:50:52;;;;;;;2.20;1.73;;;;;;;;;;4908555;29;20827;-70
2024/01/02 06:53:18;;;;;;;1.60;1.50;;;;;;;;;;4905212;29;20124;-70
2024/01/02 06:55:44;;;;;;;2.80;2.60;;;;;;;;;;4915920;29;20047;-70
2024/01/02 06:58:11;;;;;;;2.50;2.30;;;;;;;;;;4925230;29;20046;-70
2024/01/02 07:00:37;;;;;;;2.20;2.00;;;;;;;;;;4906719;29;20055;-70
2024/01/02 07:03:03;;;;;;;2.67;2.47;;;8.00;99.90;;;;;;4908016;29;20539;-70
2024/01/02 07:05:29;;;;;;;3.20;2.63;;;;;;;;;;4901444;29;20048;-70
2024/01/02 07:07:56;;;;;;;3.40;2.80;;;;;;;;;;4925224;29;20575;-70
2024/01/02 07:10:24;;;;;;;2.65;2.38;;;;;;;;;;4906623;29;20592;-70
2024/01/02 07:12:50;;;;;;;2.58;2.35;;;;;;;;;;4924059;29;20052;-71
2024/01/02 07:15:17;;;;;;;4.22;2.35;;;;;;;;;;4908553;29;20047;-70
2024/01/02 07:17:43;;;;;;;3.20;2.90;;;;;;;;;;4925198;29;20131;-70
2024/01/02 07:20:09;;;;;;;2.92;2.60;;;;;;;;;;4908676;29;20055;-70
2024/01/02 07:22:35;;;;;;;3.15;2.80;;;;;;;;;;4899099;29;20967;-70
2024/01/02 07:25:01;;;;;;;3.63;2.90;;;;;;;;;;4916502;29;20056;-70
2024/01/02 07:27:27;;;;;;;3.10;2.58;;;;;;;;;;4900375;29;20123;-71
2024/01/02 07:29:54;;;;;;;3.67;2.90;;;;;;;;;;4901036;29;20043;-70
2024/01/02 07:32:20;;;;;;;4.05;2.63;;;;;;;;;;4932657;28;20047;-70
2024/01/02 07:34:46;;;;;;;6.50;3.03;;;;;;;;;;4930888;28;20058;-69
2024/01/02 07:37:12;;;;;;;7.88;3.13;;;;;;;;;;4921182;29;20418;-69
2024/01/02 07:39:38;;;;;;;7.95;3.67;;;;;;;;;;4923170;28;20052;-70
2024/01/02 07:42:05;;;;;;;6.93;3.80;;;;;;;;;;4925701;29;20059;-69
2024/01/02 07:44:32;;;;;;;9.80;5.30;;;;;;;;;;4922013;28;20082;-71
2024/01/02 07:46:58;;;;;;;9.70;4.50;;;;;;;;;;4927504;29;20058;-70
2024/01/02 07:49:24;;;;;;;12.43;4.78;;;;;;;;;;4924806;28;20537;-70
2024/01/02 07:51:51;;;;;;;8.88;4.50;;;;;;;;;;4922498;29;20511;-70
2024/01/02 07:54:18;;;;;;;8.20;5.30;;;;;;;;;;4938409;28;20055;-71
2024/01/02 07:56:44;;;;;;;9.32;4.13;;;;;;;;;;4928603;28;20125;-70
2024/01/02 07:59:15;;;;;;;9.88;4.53;;;;;;;;;;4916430;29;20051;-72
2024/01/02 08:01:41;;;;;;;16.35;5.75;;;;;;;;;;4931629;29;20051;-71
2024/01/02 08:04:07;;;;;;;13.65;5.30;;;;;;;;;;4927979;29;20172;-71
2024/01/02 08:06:33;;;;;;;21.27;4.80;;;;;;;;;;4923552;29;20066;-71
2024/01/02 08:08:59;;;;;;;18.58;4.88;;;;;;;;;;4925794;29;20810;-70
2024/01/02 08:11:25;;;;;;;16.40;4.28;;;;;;;;;;4926400;29;20050;-70
2024/01/02 08:13:51;;;;;;;24.80;4.45;;;;;;;;;;4926765;29;20074;-69
2024/01/02 08:16:17;;;;;;;29.63;4.60;;;;;;;;;;4947551;28;20053;-72
2024/01/02 08:18:43;;;;;;;28.48;5.07;;;;;;;;;;4921454;29;20051;-72
2024/01/02 08:21:09;;;;;;;21.10;4.85;;;;;;;;;;4921807;29;20162;-73
2024/01/02 08:23:38;;;;;;;30.27;7.03;;;;;;;;;;4924165;29;20122;-72
2024/01/02 08:26:15;;;;;;;23.77;5.80;;;;;;;;;;4926993;29;20814;-71
2024/01/02 08:28:41;;;;;;;19.05;5.38;;;;;;;;;;4921832;29;20527;-72
2024/01/02 08:31:07;;;;;;;22.25;4.68;;;;;;;;;;4934121;29;20056;-72
2024/01/02 08:33:33;;;;;;;27.30;5.28;;;;;;;;;;4907920;29;20058;-71
2024/01/02 08:35:59;;;;;;;26.27;5.47;;;;;;;;;;4916631;29;20772;-72
2024/01/02 08:38:25;;;;;;;15.93;3.95;;;;;;;;;;4895910;29;20047;-70
2024/01/02 08:40:52;;;;;;;14.95;3.42;;;;;;;;;;4904815;29;20150;-70
2024/01/02 08:43:18;;;;;;;20.65;3.53;;;;;;;;;;4904261;29;20095;-70
2024/01/02 08:45:45;;;;;;;22.48;4.43;;;;;;;;;;4904424;29;20047;-70
2024/01/02 08:48:11;;;;;;;23.40;3.65;;;;;;;;;;4903599;29;20044;-70
2024/01/02 08:50:41;;;;;;;26.85;4.05;;;;;;;;;;4898312;29;20050;-71
2024/01/02 08:53:08;;;;;;;23.35;3.33;;;;;;;;;;4903529;29;20115;-71
2024/01/02 08:55:34;;;;;;;21.52;3.78;;;;;;;;;;4916322;29;20050;-71
2024/01/02 08:57:59;;;;;;;21.13;3.33;;;;;;;;;;4917299;29;20044;-71
2024/01/02 09:00:26;;;;;;;19.27;3.20;;;;;;;;;;4900277;29;20044;-73
2024/01/02 09:02:52;;;;;;;22.75;3.88;;;;;;;;;;4904826;29;20058;-72
2024/01/02 09:05:18;;;;;;;12.63;3.25;;;;;;;;;;4901059;29;20134;-73
2024/01/02 09:07:44;;;;;;;21.95;3.72;;;;;;;;;;4901024;29;20047;-72
2024/01/02 09:10:10;;;;;;;27.27;4.40;;;;;;;;;;4901838;29;20858;-71
2024/01/02 09:12:36;;;;;;;16.77;3.03;;;;;;;;;;4918400;29;20047;-71
2024/01/02 09:15:02;;;;;;;25.63;4.03;;;;;;;;;;4904390;29;20046;-73
2024/01/02 09:17:28;;;;;;;21.08;4.60;;;;;;;;;;4902943;29;20047;-71
2024/01/02 09:19:54;;;;;;;26.95;3.22;;;;;;;;;;4902068;29;20055;-71
2024/01/02 09:22:23;;;;;;;20.10;3.00;;;;;;;;;;4889621;29;20568;-70
2024/01/02 09:24:50;;;;;;;22.65;2.88;;;;;;;;;;4922015;29;20051;-73
2024/01/02 09:27:17;;;;;;;13.05;3.40;;;;;;;;;;4885312;29;20189;-72
2024/01/02 09:29:43;;;;;;;20.27;3.95;;;;;;;;;;4902531;29;20039;-72
2024/01/02 09:32:10;;;;;;;25.70;3.97;;;;;;;;;;4886503;29;20163;-71
2024/01/02 09:34:37;;;;;;;19.25;3.08;;;;;;;;;;4904481;29;20051;-72
2024/01/02 09:37:04;;;;;;;22.95;3.25;;;;;;;;;;4899695;29;20094;-71
2024/01/02 09:39:30;;;;;;;19.90;4.10;;;;;;;;;;4899128;29;20060;-72
2024/01/02 09:42:25;;;;;;;26.10;3.28;;;;;;;;;;4901870;29;20058;-76
2024/01/02 09:45:07;;;;;;;16.90;3.55;;;;;;;;;;4881502;29;20047;-73
2024/01/02 09:47:33;;;;;;;22.38;4.38;;;;;;;;;;4889386;29;20487;-73
2024/01/02 09:50:18;;;;;;;16.40;3.63;;;;;;;;;;4918901;29;20077;-74
2024/01/02 09:53:03;;;;;;;24.27;3.17;;;;;;;;;;4881359;29;20044;-74
2024/01/02 09:56:02;;;;;;;21.33;3.53;;;;;;;;;;4901907;29;20632;-75
2024/01/02 09:58:36;;;;;;;30.50;4.13;;;;;;;;;;4892920;29;20555;-74
2024/01/02 10:01:29;;;;;;;23.35;4.35;;;;;;;;;;4919437;29;20052;-74
2024/01/02 10:03:58;;;;;;;24.85;5.18;;;;;;;;;;4900800;29;20058;-73
2024/01/02 10:06:58;;;;;;;26.13;3.47;;;;;;;;;;4920444;29;20060;-76
2024/01/02 10:09:25;;;;;;;;;;;;;;;;;;4908304;29;20166;-74
2024/01/02 10:12:10;;;;;;;26.33;4.90;;;;;;;;;;4902057;29;19931;-73
2024/01/02 10:14:44;;;;;;;23.13;3.78;;;;;;;;;;4888822;29;20155;-73
2024/01/02 10:17:36;;;;;;;20.33;4.05;;;;;;;;;;4924012;29;20051;-74
2024/01/02 10:20:03;;;;;;;19.45;4.32;;;;;;;;;;4886751;29;20098;-74
2024/01/02 10:22:42;;;;;;;19.70;4.35;;;;;;;;;;4907271;29;20115;-73
2024/01/02 10:25:13;;;;;;;17.30;3.72;;;;;;;;;;4889663;29;20097;-75
2024/01/02 10:27:59;;;;;;;13.90;3.58;;;;;;;;;;4886714;29;20048;-74
2024/01/02 10:30:32;;;;;;;23.20;4.35;;;;;;;;;;4904776;29;20044;-74
2024/01/02 10:33:22;;;;;;;12.98;3.47;;;;;;;;;;4906567;29;20060;-74
2024/01/02 10:35:58;;;;;;;24.77;4.10;;;;;;;;;;4885692;29;20614;-74
2024/01/02 10:38:24;;;;;;;19.42;4.10;;;;;;;;;;4904567;29;20491;-74
2024/01/02 10:40:51;;;;;;;18.95;3.13;;;;;;;;;;4894578;29;20127;-74
2024/01/02 10:43:19;;;;;;;17.70;4.10;;;;;;;;;;4903033;29;20298;-73
2024/01/02 10:45:55;;;;;;;16.65;3.10;;;;;;;;;;4904111;29;20094;-75
2024/01/02 10:48:38;;;;;;;22.23;3.45;;;;;;;;;;4919143;29;20047;-74
2024/01/02 10:51:08;;;;;;;22.65;4.68;;;;;;;;;;4896003;29;20047;-73
2024/01/02 10:53:44;;;;;;;20.23;3.60;;;;;;;;;;4917822;29;20047;-74
2024/01/02 10:56:28;;;;;;;20.77;4.43;;;;;;;;;;4895663;29;20044;-74
2024/01/02 10:59:10;;;;;;;17.08;3.90;;;;;;;;;;4921181;29;20049;-75
2024/01/02 11:01:47;;;;;;;20.88;3.38;;;;;;;;;;4920214;29;20585;-74
2024/01/02 11:04:40;;;;;;;21.30;4.30;;;;;;;;;;4907993;29;20048;-73
2024/01/02 11:07:22;;;;;;;29.30;5.07;;;;;;;;;;4902024;29;20054;-74
2024/01/02 11:09:49;;;;;;;27.13;4.95;;;;;;;;;;4900024;29;20191;-73
2024/01/02 11:12:18;;;;;;;33.97;5.22;;;;;;;;;;4889578;29;20039;-73
2024/01/02 11:14:45;;;;;;;24.23;4.63;;;;;;;;;;4890332;29;20281;-73
2024/01/02 11:17:15;;;;;;;20.02;4.38;;;;;;;;;;4908358;29;20051;-74
2024/01/02 11:19:57;;;;;;;26.63;4.53;;;;;;;;;;4896348;29;20074;-74
2024/01/02 11:22:27;;;;;;;21.15;4.68;;;;;;;;;;4886815;29;20484;-74
2024/01/02 11:25:00;;;;;;;31.30;5.60;;;;;;;;;;4900747;29;20126;-74
2024/01/02 11:27:27;;;;;;;24.40;4.68;;;;;;;;;;4906658;29;21410;-73
2024/01/02 11:29:56;;;;;;;26.15;5.32;;;;;;;;;;4905672;29;20067;-74
2024/01/02 11:32:28;;;;;;;28.10;5.20;;;;;;;;;;4903731;29;20818;-74
2024/01/02 11:35:00;;;;;;;16.38;3.92;;;;;;;;;;4909502;29;20097;-74
2024/01/02 11:37:26;;;;;;;27.45;6.45;;;;;;;;;;4951469;28;20039;-73
2024/01/02 11:40:15;;;;;;;27.20;4.15;;;;;;;;;;4928051;29;20058;-74
2024/01/02 11:43:09;;;;;;;26.33;5.65;;;;;;;;;;4912679;28;20043;-75
2024/01/02 11:45:56;;;;;;;24.85;5.50;;;;;;;;;;4942268;28;20205;-71
2024/01/02 11:48:41;;;;;;;24.52;3.88;;;;;;;;;;4912599;29;20043;-73
2024/01/02 11:51:12;;;;;;;31.63;4.63;;;;;;;;;;4912382;28;20051;-72
2024/01/02 11:53:55;;;;;;;29.45;4.07;;;11.20;99.90;;;;;;4931126;28;20057;-71
2024/01/02 11:56:23;;;;;;;22.02;3.97;;;;;;;;;;4925997;29;20975;-72
2024/01/02 11:59:01;;;;;;;31.10;5.00;;;;;;;;;;4926961;29;20051;-72
2024/01/02 12:01:34;;;;;;;30.20;4.43;;;;;;;;;;4924926;29;20047;-73
2024/01/02 12:04:00;;;;;;;21.15;4.40;;;;;;;;;;4920758;29;20055;-73
2024/01/02 12:06:41;;;;;;;27.55;4.72;;;;;;;;;;4924512;28;20050;-73
2024/01/02 12:09:09;;;;;;;23.15;4.13;;;;;;;;;;4927857;29;20067;-71
2024/01/02 12:11:39;;;;;;;19.80;4.50;;;;;;;;;;4901289;28;20508;-72
2024/01/02 12:14:15;;;;;;;30.63;7.00;;;;;;;;;;4929924;29;20051;-71
2024/01/02 12:16:43;;;;;;;29.75;6.75;;;;;;;;;;4928295;29;20089;-72
2024/01/02 12:19:11;;;;;;;29.40;6.00;;;;;;;;;;4921011;29;20047;-72
2024/01/02 12:21:39;;;;;;;24.73;4.60;;;;;;;;;;4927716;29;20050;-72
2024/01/02 12:24:06;;;;;;;34.67;5.78;;;;;;;;;;4908725;29;20065;-71
2024/01/02 12:26:35;;;;;;;37.42;6.93;;;;;;;;;;4908079;28;20120;-70
2024/01/02 12:29:01;;;;;;;33.10;5.80;;;;;;;;;;4940107;29;20062;-72
2024/01/02 12:31:27;;;;;;;26.83;4.85;;;;;;;;;;4916372;29;20059;-72
2024/01/02 12:33:58;;;;;;;37.92;6.35;;;;;;;;;;4938932;29;20110;-71
2024/01/02 12:36:37;;;;;;;31.17;6.40;;;;;;;;;;4923314;29;20054;-71
2024/01/02 12:39:06;;;;;;;32.25;6.22;;;;;;;;;;4917251;29;20815;-72
2024/01/02 12:41:38;;;;;;;29.95;6.82;;;;;;;;;;4922350;29;20049;-72
2024/01/02 12:44:07;;;;;;;29.20;6.32;;;;;;;;;;4939336;28;20055;-72
2024/01/02 12:46:34;;;;;;;28.23;5.25;;;;;;;;;;4921695;29;20051;-71
2024/01/02 12:49:04;;;;;;;36.45;6.78;;;;;;;;;;4941455;29;20098;-72
2024/01/02 12:51:31;;;;;;;29.75;5.72;;;;;;;;;;4941682;28;20043;-72
2024/01/02 12:53:59;;;;;;;25.70;5.35;;;;;;;;;;4909183;28;20047;-71
2024/01/02 12:56:26;;;;;;;24.55;5.70;;;;;;;;;;4913074;29;20134;-73
2024/01/02 12:58:53;;;;;;;28.42;6.25;;;;;;;;;;4925536;29;20730;-72
2024/01/02 13:01:20;;;;;;;26.40;5.32;;;;;;;;;;4929692;29;20130;-72
2024/01/02 13:03:48;;;;;;;33.28;6.07;;;;;;;;;;4913015;29;20043;-73
2024/01/02 13:06:15;;;;;;;37.10;6.88;;;;;;;;;;4912303;29;20050;-73
2024/01/02 13:25:42;;;;;;;38.58;6.60;;;;;;;;;;4927592;29;20091;-72
2024/01/02 13:28:18;;;;;;;28.02;5.53;;;;;;;;;;4911825;29;20134;-73
2024/01/02 13:30:47;;;;;;;30.52;5.30;;;;;;;;;;4914884;29;20035;-73
2024/01/02 13:33:13;;;;;;;29.67;5.30;;;;;;;;;;4906716;29;20450;-73
2024/01/02 13:35:40;;;;;;;33.35;6.15;;;;;;;;;;4919591;29;20231;-74
2024/01/02 13:38:07;;;;;;;24.23;6.05;;;;;;;;;;4918572;29;20051;-72
2024/01/02 13:40:33;;;;;;;38.38;7.45;;;;;;;;;;4910918;29;20050;-74
2024/01/02 13:43:01;;;;;;;35.22;6.80;;;;;;;;;;4918781;29;20118;-73
2024/01/02 13:45:32;;;;;;;28.25;6.57;;;;;;;;;;4938532;28;20054;-72
2024/01/02 13:48:08;;;;;;;33.55;5.95;;;;;;;;;;4920298;28;20055;-73
2024/01/02 13:50:36;;;;;;;41.15;7.40;;;;;;;;;;4915497;29;20047;-74
2024/01/02 13:53:04;;;;;;;32.92;7.15;;;;;;;;;;4923187;29;20292;-74
2024/01/02 13:55:30;;;;;;;33.80;7.43;;;;;;;;;;4919330;29;20106;-73
2024/01/02 13:58:06;;;;;;;30.60;7.18;;;;;;;;;;4919378;28;20054;-71
2024/01/02 14:00:32;;;;;;;33.30;7.38;;;;;;;;;;4919043;28;20047;-71
2024/01/02 14:02:58;;;;;;;30.90;6.72;;;;;;;;;;4920533;29;20062;-72
2024/01/02 14:05:27;;;;;;;34.95;6.80;;;;;;;;;;4922099;29;20051;-73
2024/01/02 14:07:54;;;;;;;23.90;5.53;;;;;;;;;;4922434;29;20059;-73
2024/01/02 14:10:30;;;;;;;36.45;8.43;;;;;;;;;;4937605;29;20828;-71
2024/01/02 14:12:57;;;;;;;21.73;5.75;;;;;;;;;;4926630;29;20043;-72
2024/01/02 14:15:23;;;;;;;23.73;6.32;;;;;;;;;;4922639;29;20039;-72
2024/01/02 14:17:54;;;;;;;26.17;7.30;;;;;;;;;;4938501;29;20162;-72
2024/01/02 14:20:23;;;;;;;23.27;7.13;;;;;;;;;;4919121;29;20059;-72
2024/01/02 14:22:52;;;;;;;25.13;6.65;;;;;;;;;;4920252;29;20051;-72
2024/01/02 14:25:18;;;;;;;20.70;6.75;;;;;;;;;;4939263;29;20061;-72
2024/01/02 14:28:04;;;;;;;20.10;7.30;;;;;;;;;;4921025;29;20044;-72
2024/01/02 14:30:43;;;;;;;18.73;7.55;;;;;;;;;;4910323;29;20046;-73
2024/01/02 14:33:09;;;;;;;19.25;6.50;;;;;;;;;;4942004;29;20065;-72
2024/01/02 14:35:38;;;;;;;18.58;7.03;;;;;;;;;;4908865;29;20039;-72
2024/01/02 14:38:16;;;;;;;19.20;7.28;;;;;;;;;;4943027;28;20047;-72
2024/01/02 14:40:50;;;;;;;18.52;7.65;;;;;;;;;;4926534;29;20538;-72
2024/01/02 14:43:22;;;;;;;16.67;7.10;;;;;;;;;;4942631;29;20538;-72
2024/01/02 14:45:52;;;;;;;18.77;7.47;;;;;;;;;;4927036;29;20078;-72
2024/01/02 14:48:26;;;;;;;17.10;6.97;;;;;;;;;;4910922;29;20869;-73
2024/01/02 14:51:01;;;;;;;20.48;5.80;;;;;;;;;;4926490;29;20043;-72
2024/01/02 14:53:30;;;;;;;10.40;5.43;;;;;;;;;;4925372;29;20039;-73
2024/01/02 14:55:59;;;;;;;13.98;5.95;;;;;;;;;;4924710;29;20051;-72
2024/01/02 14:58:41;;;;;;;16.35;7.22;;;;;;;;;;4909941;29;20043;-72